Terminal Aerodrome Forecast
Issued by NWS

Home | Current Version | Previous Version | Text Only | Print | Product List | Glossary On
Versions: 1 2 3 4 5 6 7 8 9 10 11 12 13 14 15
000
FTAK31 PAJN 301200 AAA
TAFAJN
TAF AMD
PAJN 301230Z 3013/3112 10010KT P6SM -SHRA SCT025 BKN035 OVC080
     FM301500 10006KT P6SM FEW035 BKN100
     FM302100 08005KT P6SM SCT050 WS020/06025KT
     FM310500 07004KT P6SM VCSH FEW050 BKN090
     FM311000 08004KT P6SM -RA OVC050=

USA.gov is the U.S. government's official web portal to all federal, state and local government web resources and services.